createdAt,value
2024-01-06T00:04:58.714Z,7.19
2024-01-06T00:10:30.162Z,7.19
2024-01-06T00:16:01.996Z,7.24
2024-01-06T00:21:33.846Z,7.23
2024-01-06T00:27:05.803Z,7.19
2024-01-06T00:32:38.307Z,7.14
2024-01-06T00:38:09.196Z,7.18
2024-01-06T00:43:40.847Z,7.11
2024-01-06T00:49:12.733Z,7.15
2024-01-06T00:54:48.898Z,6.81
2024-01-06T01:00:20.631Z,6.99
2024-01-06T01:05:52.096Z,7.02
2024-01-06T01:11:23.979Z,7.0
2024-01-06T01:16:56.066Z,6.93
2024-01-06T01:22:27.237Z,6.84
2024-01-06T01:27:58.946Z,6.85
2024-01-06T01:33:31.057Z,6.78
2024-01-06T01:39:02.644Z,6.61
2024-01-06T01:44:34.115Z,6.65
2024-01-06T01:50:05.778Z,6.63
2024-01-06T01:55:42.204Z,6.85
2024-01-06T02:01:13.764Z,6.58
2024-01-06T02:06:45.493Z,6.62
2024-01-06T02:12:17.160Z,6.62
2024-01-06T02:17:48.913Z,6.69
2024-01-06T02:23:20.538Z,6.61
2024-01-06T02:28:52.317Z,6.62
2024-01-06T02:34:24.060Z,6.27
2024-01-06T02:39:55.962Z,6.25
2024-01-06T02:45:28.035Z,6.28
2024-01-06T02:51:00.545Z,6.27
2024-01-06T02:56:37.850Z,6.32
2024-01-06T03:02:09.297Z,6.15
2024-01-06T03:07:41.000Z,6.11
2024-01-06T03:13:12.537Z,6.15
2024-01-06T03:18:44.291Z,6.16
2024-01-06T03:24:15.978Z,6.23
2024-01-06T03:29:47.639Z,6.33
2024-01-06T03:35:19.336Z,6.3
2024-01-06T03:40:51.850Z,6.16
2024-01-06T03:46:22.811Z,6.08
2024-01-06T03:51:54.593Z,6.17
2024-01-06T03:57:30.872Z,6.24
2024-01-06T04:03:02.767Z,6.35
2024-01-06T04:08:34.075Z,6.53
2024-01-06T04:14:05.805Z,6.56
2024-01-06T04:19:37.517Z,6.55
2024-01-06T04:25:09.517Z,6.78
2024-01-06T04:30:41.270Z,6.75
2024-01-06T04:36:12.953Z,6.61
2024-01-06T04:41:44.651Z,6.45
2024-01-06T04:47:16.720Z,6.58
2024-01-06T04:52:48.136Z,6.54
2024-01-06T04:58:23.970Z,6.57
2024-01-06T05:03:55.994Z,6.52
2024-01-06T05:09:27.660Z,6.39
2024-01-06T05:14:59.194Z,6.45
2024-01-06T05:20:30.823Z,6.48
2024-01-06T05:26:02.535Z,6.76
2024-01-06T05:31:34.682Z,6.82
2024-01-06T05:37:05.985Z,6.54
2024-01-06T05:42:38.248Z,6.45
2024-01-06T05:48:09.716Z,6.56
2024-01-06T05:53:41.146Z,6.3
2024-01-06T05:59:19.511Z,6.37
2024-01-06T06:04:51.022Z,6.19
2024-01-06T06:10:23.183Z,6.01
2024-01-06T06:15:54.475Z,5.93
2024-01-06T06:21:26.437Z,5.99
2024-01-06T06:26:57.901Z,6.08
2024-01-06T06:32:29.909Z,6.18
2024-01-06T06:38:01.700Z,6.05
2024-01-06T06:43:33.090Z,5.88
2024-01-06T06:49:05.521Z,6.18
2024-01-06T06:54:37.103Z,6.17
2024-01-06T07:00:12.904Z,6.2
2024-01-06T07:05:44.648Z,6.29
2024-01-06T07:11:16.068Z,6.35
2024-01-06T07:16:48.029Z,6.4
2024-01-06T07:22:19.867Z,6.49
2024-01-06T07:27:54.354Z,6.45
2024-01-06T07:33:23.248Z,6.34
2024-01-06T07:38:54.806Z,6.65
2024-01-06T07:44:27.192Z,6.52
2024-01-06T07:49:58.787Z,6.68
2024-01-06T07:55:30.005Z,6.67
2024-01-06T08:01:06.211Z,6.82
2024-01-06T08:06:38.022Z,7.15
2024-01-06T08:12:09.496Z,7.22
2024-01-06T08:17:41.316Z,6.92
2024-01-06T08:23:13.159Z,6.86
2024-01-06T08:28:44.645Z,7.14
2024-01-06T08:34:16.528Z,7.22
2024-01-06T08:39:48.907Z,6.98
2024-01-06T08:45:19.821Z,6.78
2024-01-06T08:50:51.777Z,6.82
2024-01-06T08:56:23.569Z,6.81
2024-01-06T09:02:01.413Z,6.72
2024-01-06T09:07:33.093Z,6.55
2024-01-06T09:13:05.855Z,6.58
2024-01-06T09:18:36.821Z,6.82
2024-01-06T09:24:08.327Z,6.96
2024-01-06T09:29:39.963Z,6.62
2024-01-06T09:35:11.955Z,6.87
2024-01-06T09:40:43.453Z,6.69
2024-01-06T09:46:15.123Z,7.11
2024-01-06T09:51:46.843Z,6.75
2024-01-06T09:57:19.144Z,6.94
2024-01-06T10:02:54.907Z,6.95
2024-01-06T10:08:26.665Z,6.99
2024-01-06T10:13:58.151Z,6.78
2024-01-06T10:19:30.195Z,6.75
2024-01-06T10:25:01.967Z,6.78
2024-01-06T10:30:33.335Z,6.53
2024-01-06T10:36:05.132Z,6.52
2024-01-06T10:41:37.353Z,6.53
2024-01-06T10:47:08.530Z,6.65
2024-01-06T10:52:40.849Z,6.67
2024-01-06T10:58:12.193Z,6.75
2024-01-06T11:03:48.146Z,6.69
2024-01-06T11:10:02.071Z,6.52
2024-01-06T11:14:51.757Z,6.79
2024-01-06T11:20:23.261Z,6.51
2024-01-06T11:25:54.996Z,6.66
2024-01-06T11:31:26.759Z,6.69
2024-01-06T11:36:58.621Z,6.57
2024-01-06T11:42:30.123Z,6.58
2024-01-06T11:48:02.744Z,6.47
2024-01-06T11:53:33.805Z,6.61
2024-01-06T11:59:05.340Z,6.81
2024-01-06T12:04:42.270Z,7.09
2024-01-06T12:15:45.110Z,7.06
2024-01-06T12:21:16.835Z,6.81
2024-01-06T12:26:48.440Z,6.96
2024-01-06T12:32:20.220Z,7.17
2024-01-06T12:37:51.975Z,7.1
2024-01-06T12:43:23.772Z,7.11
2024-01-06T12:48:55.339Z,6.81
2024-01-06T12:54:26.935Z,6.75
2024-01-06T12:59:58.948Z,6.85
2024-01-06T13:05:34.790Z,6.71
2024-01-06T13:11:06.483Z,6.72
2024-01-06T13:16:38.245Z,6.5
2024-01-06T13:22:10.252Z,6.61
2024-01-06T13:27:41.778Z,6.64
2024-01-06T13:33:13.596Z,6.79
2024-01-06T13:38:45.374Z,6.73
2024-01-06T13:44:17.183Z,6.6
2024-01-06T13:49:48.950Z,6.52
2024-01-06T13:55:20.192Z,6.6
2024-01-06T14:00:52.029Z,6.82
2024-01-06T14:06:30.262Z,6.65
2024-01-06T14:12:02.350Z,6.37
2024-01-06T14:17:33.774Z,6.3
2024-01-06T14:23:05.406Z,6.69
2024-01-06T14:28:37.728Z,6.66
2024-01-06T14:34:08.801Z,6.73
2024-01-06T14:39:40.413Z,6.77
2024-01-06T14:45:12.439Z,6.55
2024-01-06T14:50:43.808Z,6.93
2024-01-06T14:56:15.873Z,7.09
2024-01-06T15:01:47.577Z,7.01
2024-01-06T15:07:23.391Z,6.82
2024-01-06T15:12:55.476Z,6.56
2024-01-06T15:18:27.008Z,6.74
2024-01-06T15:23:58.770Z,6.99
2024-01-06T15:29:30.377Z,6.97
2024-01-06T15:35:02.261Z,7.0
2024-01-06T15:40:34.070Z,6.96
2024-01-06T15:46:05.648Z,7.03
2024-01-06T15:51:37.236Z,7.13
2024-01-06T15:57:09.097Z,7.05
2024-01-06T16:02:42.158Z,6.9
2024-01-06T16:08:16.861Z,7.01
2024-01-06T16:13:49.642Z,6.76
2024-01-06T16:19:20.507Z,6.88
2024-01-06T16:24:51.845Z,6.83
2024-01-06T16:30:23.979Z,6.71
2024-01-06T16:35:55.552Z,6.77
2024-01-06T16:41:27.098Z,6.82
2024-01-06T16:46:58.881Z,6.88
2024-01-06T16:52:30.858Z,6.96
2024-01-06T16:58:02.455Z,6.95
2024-01-06T17:03:33.965Z,6.87
2024-01-06T17:09:10.100Z,6.82
2024-01-06T17:14:42.008Z,6.88
2024-01-06T17:20:13.466Z,6.69
2024-01-06T17:25:45.195Z,6.87
2024-01-06T17:31:16.947Z,6.83
2024-01-06T17:36:49.005Z,6.62
2024-01-06T17:42:20.449Z,6.93
2024-01-06T17:47:52.995Z,7.24
2024-01-06T17:53:24.119Z,6.83
2024-01-06T17:58:55.809Z,7.11
2024-01-06T18:04:27.351Z,7.3
2024-01-06T18:10:07.771Z,7.2
2024-01-06T18:15:38.384Z,7.32
2024-01-06T18:21:08.843Z,7.22
2024-01-06T18:26:40.936Z,6.95
2024-01-06T18:32:14.134Z,7.04
2024-01-06T18:37:44.179Z,6.95
2024-01-06T18:43:15.936Z,6.72
2024-01-06T18:48:47.530Z,7.02
2024-01-06T18:54:19.755Z,7.46
2024-01-06T18:59:50.874Z,7.5
2024-01-06T19:05:22.935Z,7.42
2024-01-06T19:11:01.297Z,7.26
2024-01-06T19:16:32.761Z,7.34
2024-01-06T19:22:04.279Z,7.36
2024-01-06T19:27:35.953Z,6.92
2024-01-06T19:33:07.648Z,6.87
2024-01-06T19:38:39.334Z,7.14
2024-01-06T19:44:11.048Z,7.15
2024-01-06T19:49:42.827Z,7.27
2024-01-06T19:55:15.641Z,7.15
2024-01-06T20:00:46.292Z,7.28
2024-01-06T20:06:17.967Z,7.06
2024-01-06T20:11:54.302Z,7.1
2024-01-06T20:17:26.119Z,7.12
2024-01-06T20:22:57.749Z,7.15
2024-01-06T20:28:29.267Z,6.99
2024-01-06T20:34:01.385Z,6.79
2024-01-06T20:39:33.064Z,6.7
2024-01-06T20:45:04.779Z,6.61
2024-01-06T20:50:36.395Z,6.81
2024-01-06T20:56:08.325Z,6.92
2024-01-06T21:01:39.623Z,6.98
2024-01-06T21:07:11.391Z,6.83
2024-01-06T21:12:49.717Z,6.98
2024-01-06T21:18:22.164Z,6.91
2024-01-06T21:23:52.895Z,6.65
2024-01-06T21:29:24.844Z,6.63
2024-01-06T21:34:56.908Z,6.82
2024-01-06T21:40:28.076Z,6.84
2024-01-06T21:45:59.743Z,6.67
2024-01-06T21:51:32.119Z,7.0
2024-01-06T21:57:03.218Z,7.23
2024-01-06T22:02:35.552Z,6.85
2024-01-06T22:08:06.645Z,6.73
2024-01-06T22:13:42.737Z,6.74
2024-01-06T22:19:14.765Z,6.58
2024-01-06T22:24:46.672Z,6.58
2024-01-06T22:30:18.173Z,6.54
2024-01-06T22:35:49.646Z,6.83
2024-01-06T22:41:21.918Z,6.93
2024-01-06T22:46:53.375Z,7.09
2024-01-06T22:52:24.830Z,7.21
2024-01-06T22:57:56.596Z,7.36
2024-01-06T23:03:28.732Z,7.29
2024-01-06T23:09:00.032Z,7.1
2024-01-06T23:14:38.401Z,6.83
2024-01-06T23:20:09.903Z,6.53
2024-01-06T23:25:41.789Z,6.61
2024-01-06T23:31:13.338Z,6.88
2024-01-06T23:36:46.063Z,7.01
2024-01-06T23:42:16.895Z,7.24
2024-01-06T23:47:48.732Z,7.25
2024-01-06T23:53:20.633Z,7.29
2024-01-06T23:58:51.882Z,7.35
